Terminal Aerodrome Forecast
Issued by NWS

Home | Current Version | Previous Version | Text Only | Print | Product List | Glossary On
Versions: 1 2 3 4 5 6 7 8 9 10 11 12 13 14 15 16 17 18 19 20
804
FTUS46 KEKA 171227 AAA
TAFCEC
TAF AMD
KCEC 171227Z 1712/1812 35004KT 2SM BR BKN003
      TEMPO 1712/1714 1/2SM FG
     FM171700 32008KT P6SM SCT003
     FM180300 VRB03KT 3SM BR BKN004=

USA.gov is the U.S. government's official web portal to all federal, state and local government web resources and services.